sensor_id;sensor_type;location;lat;lon;timestamp;P1;durP1;ratioP1;P2;durP2;ratioP2
61895;SDS011;47835;52.778;5.956;2024-03-22T00:01:55;36.40;;;26.23;;
61895;SDS011;47835;52.778;5.956;2024-03-22T00:04:21;39.35;;;27.40;;
61895;SDS011;47835;52.778;5.956;2024-03-22T00:06:48;40.55;;;27.08;;
61895;SDS011;47835;52.778;5.956;2024-03-22T00:09:14;46.85;;;27.63;;
61895;SDS011;47835;52.778;5.956;2024-03-22T00:11:41;44.03;;;28.50;;
61895;SDS011;47835;52.778;5.956;2024-03-22T00:14:07;40.78;;;27.40;;
61895;SDS011;47835;52.778;5.956;2024-03-22T00:16:33;42.00;;;28.15;;
61895;SDS011;47835;52.778;5.956;2024-03-22T00:18:59;41.92;;;27.98;;
61895;SDS011;47835;52.778;5.956;2024-03-22T00:21:25;39.97;;;27.92;;
61895;SDS011;47835;52.778;5.956;2024-03-22T00:23:51;41.65;;;28.48;;
61895;SDS011;47835;52.778;5.956;2024-03-22T00:26:17;42.15;;;28.85;;
61895;SDS011;47835;52.778;5.956;2024-03-22T00:28:42;46.10;;;27.98;;
61895;SDS011;47835;52.778;5.956;2024-03-22T00:31:08;44.22;;;29.25;;
61895;SDS011;47835;52.778;5.956;2024-03-22T00:33:34;46.72;;;29.65;;
61895;SDS011;47835;52.778;5.956;2024-03-22T00:36:00;45.78;;;30.73;;
61895;SDS011;47835;52.778;5.956;2024-03-22T00:38:25;48.50;;;31.30;;
61895;SDS011;47835;52.778;5.956;2024-03-22T00:40:51;50.80;;;30.73;;
61895;SDS011;47835;52.778;5.956;2024-03-22T00:43:17;48.65;;;32.05;;
61895;SDS011;47835;52.778;5.956;2024-03-22T00:45:42;42.28;;;29.77;;
61895;SDS011;47835;52.778;5.956;2024-03-22T00:48:08;47.65;;;32.67;;
61895;SDS011;47835;52.778;5.956;2024-03-22T00:50:33;48.25;;;31.70;;
61895;SDS011;47835;52.778;5.956;2024-03-22T00:52:59;50.88;;;31.05;;
61895;SDS011;47835;52.778;5.956;2024-03-22T00:55:27;47.33;;;30.42;;
61895;SDS011;47835;52.778;5.956;2024-03-22T00:57:53;50.13;;;31.70;;
61895;SDS011;47835;52.778;5.956;2024-03-22T01:00:18;45.35;;;30.13;;
61895;SDS011;47835;52.778;5.956;2024-03-22T01:02:44;52.17;;;32.30;;
61895;SDS011;47835;52.778;5.956;2024-03-22T01:05:10;45.13;;;31.13;;
61895;SDS011;47835;52.778;5.956;2024-03-22T01:07:36;46.85;;;31.17;;
61895;SDS011;47835;52.778;5.956;2024-03-22T01:10:02;49.30;;;31.75;;
61895;SDS011;47835;52.778;5.956;2024-03-22T01:12:29;48.47;;;32.78;;
61895;SDS011;47835;52.778;5.956;2024-03-22T01:14:56;51.72;;;33.78;;
61895;SDS011;47835;52.778;5.956;2024-03-22T01:17:21;50.90;;;33.80;;
61895;SDS011;47835;52.778;5.956;2024-03-22T01:19:47;56.88;;;35.42;;
61895;SDS011;47835;52.778;5.956;2024-03-22T01:22:13;50.28;;;34.00;;
61895;SDS011;47835;52.778;5.956;2024-03-22T01:24:39;51.30;;;34.47;;
61895;SDS011;47835;52.778;5.956;2024-03-22T01:27:04;50.42;;;32.50;;
61895;SDS011;47835;52.778;5.956;2024-03-22T01:29:30;51.35;;;33.03;;
61895;SDS011;47835;52.778;5.956;2024-03-22T01:31:57;52.25;;;33.15;;
61895;SDS011;47835;52.778;5.956;2024-03-22T01:34:23;50.60;;;33.15;;
61895;SDS011;47835;52.778;5.956;2024-03-22T01:36:50;53.00;;;33.13;;
61895;SDS011;47835;52.778;5.956;2024-03-22T01:39:19;57.13;;;35.25;;
61895;SDS011;47835;52.778;5.956;2024-03-22T01:41:48;53.50;;;35.35;;
61895;SDS011;47835;52.778;5.956;2024-03-22T01:44:14;52.72;;;33.78;;
61895;SDS011;47835;52.778;5.956;2024-03-22T01:46:41;56.55;;;35.05;;
61895;SDS011;47835;52.778;5.956;2024-03-22T01:49:08;55.10;;;33.97;;
61895;SDS011;47835;52.778;5.956;2024-03-22T01:51:35;59.65;;;33.72;;
61895;SDS011;47835;52.778;5.956;2024-03-22T01:54:01;54.08;;;34.72;;
61895;SDS011;47835;52.778;5.956;2024-03-22T01:56:28;54.33;;;35.67;;
61895;SDS011;47835;52.778;5.956;2024-03-22T01:58:55;56.28;;;35.28;;
61895;SDS011;47835;52.778;5.956;2024-03-22T02:01:22;54.67;;;34.55;;
61895;SDS011;47835;52.778;5.956;2024-03-22T02:03:48;54.05;;;34.13;;
61895;SDS011;47835;52.778;5.956;2024-03-22T02:06:13;56.38;;;35.33;;
61895;SDS011;47835;52.778;5.956;2024-03-22T02:08:40;54.40;;;33.95;;
61895;SDS011;47835;52.778;5.956;2024-03-22T02:11:07;60.28;;;34.72;;
61895;SDS011;47835;52.778;5.956;2024-03-22T02:13:33;56.75;;;34.38;;
61895;SDS011;47835;52.778;5.956;2024-03-22T02:15:59;52.30;;;34.20;;
61895;SDS011;47835;52.778;5.956;2024-03-22T02:18:28;62.85;;;36.30;;
61895;SDS011;47835;52.778;5.956;2024-03-22T02:20:53;56.67;;;36.50;;
61895;SDS011;47835;52.778;5.956;2024-03-22T02:23:22;57.92;;;37.08;;
61895;SDS011;47835;52.778;5.956;2024-03-22T02:26:08;55.22;;;33.92;;
61895;SDS011;47835;52.778;5.956;2024-03-22T02:28:34;63.67;;;35.95;;
61895;SDS011;47835;52.778;5.956;2024-03-22T02:31:01;59.20;;;34.88;;
61895;SDS011;47835;52.778;5.956;2024-03-22T02:33:27;61.63;;;34.95;;
61895;SDS011;47835;52.778;5.956;2024-03-22T02:35:53;51.95;;;31.00;;
61895;SDS011;47835;52.778;5.956;2024-03-22T02:38:19;52.65;;;31.58;;
61895;SDS011;47835;52.778;5.956;2024-03-22T02:40:45;58.58;;;33.88;;
61895;SDS011;47835;52.778;5.956;2024-03-22T02:43:11;56.38;;;32.00;;
61895;SDS011;47835;52.778;5.956;2024-03-22T02:45:37;59.50;;;32.83;;
61895;SDS011;47835;52.778;5.956;2024-03-22T02:48:03;55.13;;;31.73;;
61895;SDS011;47835;52.778;5.956;2024-03-22T02:50:36;57.13;;;31.35;;
61895;SDS011;47835;52.778;5.956;2024-03-22T02:53:02;58.13;;;31.27;;
61895;SDS011;47835;52.778;5.956;2024-03-22T02:55:28;54.85;;;30.67;;
61895;SDS011;47835;52.778;5.956;2024-03-22T02:57:55;56.08;;;30.70;;
61895;SDS011;47835;52.778;5.956;2024-03-22T03:00:22;48.47;;;29.27;;
61895;SDS011;47835;52.778;5.956;2024-03-22T03:02:47;54.63;;;29.42;;
61895;SDS011;47835;52.778;5.956;2024-03-22T03:05:13;57.10;;;30.58;;
61895;SDS011;47835;52.778;5.956;2024-03-22T03:07:39;51.90;;;29.65;;
61895;SDS011;47835;52.778;5.956;2024-03-22T03:10:05;56.75;;;30.85;;
61895;SDS011;47835;52.778;5.956;2024-03-22T03:12:31;50.90;;;30.45;;
61895;SDS011;47835;52.778;5.956;2024-03-22T03:14:57;52.97;;;30.70;;
61895;SDS011;47835;52.778;5.956;2024-03-22T03:17:23;49.88;;;30.08;;
61895;SDS011;47835;52.778;5.956;2024-03-22T03:19:48;58.95;;;31.45;;
61895;SDS011;47835;52.778;5.956;2024-03-22T03:22:14;58.22;;;31.35;;
61895;SDS011;47835;52.778;5.956;2024-03-22T03:24:40;52.28;;;31.13;;
61895;SDS011;47835;52.778;5.956;2024-03-22T03:27:05;52.35;;;30.92;;
61895;SDS011;47835;52.778;5.956;2024-03-22T03:29:31;58.45;;;31.23;;
61895;SDS011;47835;52.778;5.956;2024-03-22T03:31:57;50.70;;;31.38;;
61895;SDS011;47835;52.778;5.956;2024-03-22T03:34:22;49.63;;;30.13;;
61895;SDS011;47835;52.778;5.956;2024-03-22T03:36:48;50.78;;;29.35;;
61895;SDS011;47835;52.778;5.956;2024-03-22T03:39:14;53.67;;;30.13;;
61895;SDS011;47835;52.778;5.956;2024-03-22T03:41:39;48.47;;;28.67;;
61895;SDS011;47835;52.778;5.956;2024-03-22T03:44:05;50.25;;;29.58;;
61895;SDS011;47835;52.778;5.956;2024-03-22T03:46:30;48.40;;;28.15;;
61895;SDS011;47835;52.778;5.956;2024-03-22T03:48:56;53.67;;;27.55;;
61895;SDS011;47835;52.778;5.956;2024-03-22T03:51:22;55.35;;;29.98;;
61895;SDS011;47835;52.778;5.956;2024-03-22T03:53:47;49.80;;;29.65;;
61895;SDS011;47835;52.778;5.956;2024-03-22T03:56:13;52.80;;;28.45;;
61895;SDS011;47835;52.778;5.956;2024-03-22T03:58:39;51.08;;;29.13;;
61895;SDS011;47835;52.778;5.956;2024-03-22T04:01:05;50.92;;;28.17;;
61895;SDS011;47835;52.778;5.956;2024-03-22T04:03:34;57.90;;;27.85;;
61895;SDS011;47835;52.778;5.956;2024-03-22T04:06:00;49.80;;;29.25;;
61895;SDS011;47835;52.778;5.956;2024-03-22T04:08:26;47.15;;;26.88;;
61895;SDS011;47835;52.778;5.956;2024-03-22T04:10:52;48.45;;;30.58;;
61895;SDS011;47835;52.778;5.956;2024-03-22T04:13:18;43.05;;;28.98;;
61895;SDS011;47835;52.778;5.956;2024-03-22T04:15:44;41.70;;;25.50;;
61895;SDS011;47835;52.778;5.956;2024-03-22T04:18:09;53.40;;;29.00;;
61895;SDS011;47835;52.778;5.956;2024-03-22T04:20:35;47.40;;;26.00;;
61895;SDS011;47835;52.778;5.956;2024-03-22T04:23:01;45.92;;;27.30;;
61895;SDS011;47835;52.778;5.956;2024-03-22T04:25:26;50.17;;;27.02;;
61895;SDS011;47835;52.778;5.956;2024-03-22T04:27:52;42.42;;;25.77;;
61895;SDS011;47835;52.778;5.956;2024-03-22T04:30:18;44.72;;;28.17;;
61895;SDS011;47835;52.778;5.956;2024-03-22T04:32:45;43.83;;;26.45;;
61895;SDS011;47835;52.778;5.956;2024-03-22T04:35:11;53.22;;;29.27;;
61895;SDS011;47835;52.778;5.956;2024-03-22T04:37:37;44.40;;;27.40;;
61895;SDS011;47835;52.778;5.956;2024-03-22T04:40:03;50.67;;;28.48;;
61895;SDS011;47835;52.778;5.956;2024-03-22T04:42:29;46.03;;;26.20;;
61895;SDS011;47835;52.778;5.956;2024-03-22T04:44:54;44.05;;;24.83;;
61895;SDS011;47835;52.778;5.956;2024-03-22T04:47:20;39.97;;;25.42;;
61895;SDS011;47835;52.778;5.956;2024-03-22T04:49:46;41.95;;;25.20;;
61895;SDS011;47835;52.778;5.956;2024-03-22T04:52:11;45.33;;;26.08;;
61895;SDS011;47835;52.778;5.956;2024-03-22T04:54:37;51.13;;;28.23;;
61895;SDS011;47835;52.778;5.956;2024-03-22T04:57:03;43.55;;;27.60;;
61895;SDS011;47835;52.778;5.956;2024-03-22T04:59:28;52.83;;;26.75;;
61895;SDS011;47835;52.778;5.956;2024-03-22T05:01:54;45.13;;;28.40;;
61895;SDS011;47835;52.778;5.956;2024-03-22T05:04:19;44.28;;;26.50;;
61895;SDS011;47835;52.778;5.956;2024-03-22T05:06:45;44.75;;;28.30;;
61895;SDS011;47835;52.778;5.956;2024-03-22T05:09:11;47.92;;;27.45;;
61895;SDS011;47835;52.778;5.956;2024-03-22T05:11:36;48.53;;;27.35;;
61895;SDS011;47835;52.778;5.956;2024-03-22T05:14:02;47.05;;;28.13;;
61895;SDS011;47835;52.778;5.956;2024-03-22T05:16:28;41.78;;;25.80;;
61895;SDS011;47835;52.778;5.956;2024-03-22T05:18:54;42.05;;;27.30;;
61895;SDS011;47835;52.778;5.956;2024-03-22T05:21:19;44.65;;;25.83;;
61895;SDS011;47835;52.778;5.956;2024-03-22T05:23:45;40.75;;;25.80;;
61895;SDS011;47835;52.778;5.956;2024-03-22T05:26:11;52.78;;;30.05;;
61895;SDS011;47835;52.778;5.956;2024-03-22T05:28:36;37.70;;;25.25;;
61895;SDS011;47835;52.778;5.956;2024-03-22T05:31:02;40.33;;;24.40;;
61895;SDS011;47835;52.778;5.956;2024-03-22T05:33:28;43.58;;;26.00;;
61895;SDS011;47835;52.778;5.956;2024-03-22T05:35:54;37.85;;;24.42;;
61895;SDS011;47835;52.778;5.956;2024-03-22T05:38:20;39.92;;;24.52;;
61895;SDS011;47835;52.778;5.956;2024-03-22T05:40:45;32.30;;;22.63;;
61895;SDS011;47835;52.778;5.956;2024-03-22T05:43:12;37.50;;;23.50;;
61895;SDS011;47835;52.778;5.956;2024-03-22T05:45:39;37.38;;;22.42;;
61895;SDS011;47835;52.778;5.956;2024-03-22T05:48:04;40.65;;;25.45;;
61895;SDS011;47835;52.778;5.956;2024-03-22T05:50:31;41.13;;;23.35;;
61895;SDS011;47835;52.778;5.956;2024-03-22T05:52:56;40.33;;;23.38;;
61895;SDS011;47835;52.778;5.956;2024-03-22T05:55:22;36.67;;;22.33;;
61895;SDS011;47835;52.778;5.956;2024-03-22T05:57:48;31.85;;;21.20;;
61895;SDS011;47835;52.778;5.956;2024-03-22T06:00:14;38.30;;;22.73;;
61895;SDS011;47835;52.778;5.956;2024-03-22T06:02:40;38.67;;;25.48;;
61895;SDS011;47835;52.778;5.956;2024-03-22T06:05:05;37.85;;;21.70;;
61895;SDS011;47835;52.778;5.956;2024-03-22T06:07:31;32.58;;;20.52;;
61895;SDS011;47835;52.778;5.956;2024-03-22T06:10:05;34.33;;;20.90;;
61895;SDS011;47835;52.778;5.956;2024-03-22T06:12:31;37.17;;;22.35;;
61895;SDS011;47835;52.778;5.956;2024-03-22T06:14:57;38.78;;;20.95;;
61895;SDS011;47835;52.778;5.956;2024-03-22T06:17:22;36.20;;;20.77;;
61895;SDS011;47835;52.778;5.956;2024-03-22T06:19:48;39.55;;;19.20;;
61895;SDS011;47835;52.778;5.956;2024-03-22T06:22:13;31.60;;;19.98;;
61895;SDS011;47835;52.778;5.956;2024-03-22T06:24:39;35.05;;;19.73;;
61895;SDS011;47835;52.778;5.956;2024-03-22T06:27:05;27.88;;;18.63;;
61895;SDS011;47835;52.778;5.956;2024-03-22T06:29:30;30.58;;;19.73;;
61895;SDS011;47835;52.778;5.956;2024-03-22T06:31:56;34.72;;;20.27;;
61895;SDS011;47835;52.778;5.956;2024-03-22T06:34:22;35.05;;;20.77;;
61895;SDS011;47835;52.778;5.956;2024-03-22T06:36:47;29.90;;;20.17;;
61895;SDS011;47835;52.778;5.956;2024-03-22T06:39:13;29.45;;;19.65;;
61895;SDS011;47835;52.778;5.956;2024-03-22T06:41:39;34.05;;;19.55;;
61895;SDS011;47835;52.778;5.956;2024-03-22T06:44:05;33.97;;;20.67;;
61895;SDS011;47835;52.778;5.956;2024-03-22T06:46:30;32.97;;;20.60;;
61895;SDS011;47835;52.778;5.956;2024-03-22T06:48:57;27.38;;;18.35;;
61895;SDS011;47835;52.778;5.956;2024-03-22T06:51:23;31.42;;;18.25;;
61895;SDS011;47835;52.778;5.956;2024-03-22T06:53:49;29.63;;;19.08;;
61895;SDS011;47835;52.778;5.956;2024-03-22T06:56:16;25.80;;;18.10;;
61895;SDS011;47835;52.778;5.956;2024-03-22T06:58:42;24.02;;;16.92;;
61895;SDS011;47835;52.778;5.956;2024-03-22T07:01:07;22.17;;;15.80;;
61895;SDS011;47835;52.778;5.956;2024-03-22T07:03:33;29.33;;;17.33;;
61895;SDS011;47835;52.778;5.956;2024-03-22T07:05:59;26.23;;;16.33;;
61895;SDS011;47835;52.778;5.956;2024-03-22T07:08:25;24.27;;;16.63;;
61895;SDS011;47835;52.778;5.956;2024-03-22T07:10:51;22.45;;;15.85;;
61895;SDS011;47835;52.778;5.956;2024-03-22T07:13:18;25.23;;;14.95;;
61895;SDS011;47835;52.778;5.956;2024-03-22T07:15:47;24.02;;;14.85;;
61895;SDS011;47835;52.778;5.956;2024-03-22T07:18:16;24.35;;;15.30;;
61895;SDS011;47835;52.778;5.956;2024-03-22T07:20:42;24.27;;;15.88;;
61895;SDS011;47835;52.778;5.956;2024-03-22T07:23:08;20.65;;;14.32;;
61895;SDS011;47835;52.778;5.956;2024-03-22T07:25:34;23.52;;;13.68;;
61895;SDS011;47835;52.778;5.956;2024-03-22T07:27:59;26.88;;;15.90;;
61895;SDS011;47835;52.778;5.956;2024-03-22T07:30:25;28.88;;;15.40;;
61895;SDS011;47835;52.778;5.956;2024-03-22T07:32:50;25.60;;;15.40;;
61895;SDS011;47835;52.778;5.956;2024-03-22T07:35:16;21.45;;;15.23;;
61895;SDS011;47835;52.778;5.956;2024-03-22T07:37:42;20.73;;;14.13;;
61895;SDS011;47835;52.778;5.956;2024-03-22T07:40:07;20.63;;;13.73;;
61895;SDS011;47835;52.778;5.956;2024-03-22T07:42:33;25.08;;;14.38;;
61895;SDS011;47835;52.778;5.956;2024-03-22T07:44:59;22.85;;;14.75;;
61895;SDS011;47835;52.778;5.956;2024-03-22T07:47:27;26.70;;;15.32;;
61895;SDS011;47835;52.778;5.956;2024-03-22T07:49:53;21.65;;;13.82;;
61895;SDS011;47835;52.778;5.956;2024-03-22T07:52:19;21.15;;;14.65;;
61895;SDS011;47835;52.778;5.956;2024-03-22T07:54:45;28.02;;;14.02;;
61895;SDS011;47835;52.778;5.956;2024-03-22T07:57:10;25.05;;;14.65;;
61895;SDS011;47835;52.778;5.956;2024-03-22T07:59:36;21.55;;;15.52;;
61895;SDS011;47835;52.778;5.956;2024-03-22T08:02:02;17.23;;;13.07;;
61895;SDS011;47835;52.778;5.956;2024-03-22T08:04:28;23.98;;;13.73;;
61895;SDS011;47835;52.778;5.956;2024-03-22T08:06:54;21.23;;;13.73;;
61895;SDS011;47835;52.778;5.956;2024-03-22T08:09:19;18.63;;;13.25;;
61895;SDS011;47835;52.778;5.956;2024-03-22T08:11:45;20.55;;;14.05;;
61895;SDS011;47835;52.778;5.956;2024-03-22T08:14:11;23.50;;;14.20;;
61895;SDS011;47835;52.778;5.956;2024-03-22T08:16:36;23.88;;;15.00;;
61895;SDS011;47835;52.778;5.956;2024-03-22T08:19:02;17.85;;;14.27;;
61895;SDS011;47835;52.778;5.956;2024-03-22T08:21:27;19.90;;;14.15;;
61895;SDS011;47835;52.778;5.956;2024-03-22T08:23:54;23.48;;;15.50;;
61895;SDS011;47835;52.778;5.956;2024-03-22T08:26:20;24.20;;;16.58;;
61895;SDS011;47835;52.778;5.956;2024-03-22T08:28:46;20.00;;;16.55;;
61895;SDS011;47835;52.778;5.956;2024-03-22T08:31:12;21.00;;;16.73;;
61895;SDS011;47835;52.778;5.956;2024-03-22T08:33:38;25.83;;;16.63;;
61895;SDS011;47835;52.778;5.956;2024-03-22T08:36:04;27.77;;;17.60;;
61895;SDS011;47835;52.778;5.956;2024-03-22T08:38:29;24.88;;;16.08;;
61895;SDS011;47835;52.778;5.956;2024-03-22T08:40:55;25.23;;;16.65;;
61895;SDS011;47835;52.778;5.956;2024-03-22T08:43:21;27.63;;;16.05;;
61895;SDS011;47835;52.778;5.956;2024-03-22T08:45:54;31.85;;;17.45;;
61895;SDS011;47835;52.778;5.956;2024-03-22T08:48:20;22.55;;;15.02;;
61895;SDS011;47835;52.778;5.956;2024-03-22T08:50:46;64.38;;;37.10;;
61895;SDS011;47835;52.778;5.956;2024-03-22T08:53:12;60.47;;;34.03;;
61895;SDS011;47835;52.778;5.956;2024-03-22T08:55:37;50.92;;;24.95;;
61895;SDS011;47835;52.778;5.956;2024-03-22T08:58:04;33.75;;;19.40;;
61895;SDS011;47835;52.778;5.956;2024-03-22T09:00:30;34.08;;;19.92;;
61895;SDS011;47835;52.778;5.956;2024-03-22T09:02:55;30.63;;;21.25;;
61895;SDS011;47835;52.778;5.956;2024-03-22T09:05:21;33.92;;;19.73;;
61895;SDS011;47835;52.778;5.956;2024-03-22T09:07:47;39.58;;;22.80;;
61895;SDS011;47835;52.778;5.956;2024-03-22T09:10:13;36.20;;;19.98;;
61895;SDS011;47835;52.778;5.956;2024-03-22T09:12:39;36.97;;;20.10;;
61895;SDS011;47835;52.778;5.956;2024-03-22T09:15:05;36.70;;;18.55;;
61895;SDS011;47835;52.778;5.956;2024-03-22T09:17:32;33.83;;;18.38;;
61895;SDS011;47835;52.778;5.956;2024-03-22T09:19:58;36.17;;;19.27;;
61895;SDS011;47835;52.778;5.956;2024-03-22T09:22:24;32.75;;;22.02;;
61895;SDS011;47835;52.778;5.956;2024-03-22T09:24:49;36.22;;;20.02;;
61895;SDS011;47835;52.778;5.956;2024-03-22T09:27:15;36.47;;;20.50;;
61895;SDS011;47835;52.778;5.956;2024-03-22T09:29:41;33.47;;;19.00;;
61895;SDS011;47835;52.778;5.956;2024-03-22T09:32:08;38.05;;;21.40;;
61895;SDS011;47835;52.778;5.956;2024-03-22T09:34:34;34.75;;;20.67;;
61895;SDS011;47835;52.778;5.956;2024-03-22T09:37:00;34.03;;;20.15;;
61895;SDS011;47835;52.778;5.956;2024-03-22T09:39:25;34.15;;;20.40;;
61895;SDS011;47835;52.778;5.956;2024-03-22T09:41:52;25.55;;;18.13;;
61895;SDS011;47835;52.778;5.956;2024-03-22T09:44:18;26.50;;;17.48;;
61895;SDS011;47835;52.778;5.956;2024-03-22T09:46:46;27.58;;;19.05;;
61895;SDS011;47835;52.778;5.956;2024-03-22T09:49:12;28.80;;;19.88;;
61895;SDS011;47835;52.778;5.956;2024-03-22T09:51:39;28.60;;;19.02;;
61895;SDS011;47835;52.778;5.956;2024-03-22T09:54:06;25.02;;;17.52;;
61895;SDS011;47835;52.778;5.956;2024-03-22T09:56:33;30.73;;;17.90;;
61895;SDS011;47835;52.778;5.956;2024-03-22T09:59:00;25.80;;;16.83;;
61895;SDS011;47835;52.778;5.956;2024-03-22T10:01:26;26.65;;;17.52;;
61895;SDS011;47835;52.778;5.956;2024-03-22T10:03:52;22.02;;;16.75;;
61895;SDS011;47835;52.778;5.956;2024-03-22T10:06:18;32.03;;;17.67;;
61895;SDS011;47835;52.778;5.956;2024-03-22T10:08:44;25.88;;;17.50;;
61895;SDS011;47835;52.778;5.956;2024-03-22T10:11:10;28.02;;;19.10;;
61895;SDS011;47835;52.778;5.956;2024-03-22T10:13:36;26.60;;;16.52;;
61895;SDS011;47835;52.778;5.956;2024-03-22T10:16:02;23.02;;;16.58;;
61895;SDS011;47835;52.778;5.956;2024-03-22T10:18:27;26.70;;;17.20;;
61895;SDS011;47835;52.778;5.956;2024-03-22T10:21:00;27.85;;;17.85;;
61895;SDS011;47835;52.778;5.956;2024-03-22T10:23:25;28.20;;;18.50;;
61895;SDS011;47835;52.778;5.956;2024-03-22T10:25:51;29.27;;;18.80;;
61895;SDS011;47835;52.778;5.956;2024-03-22T10:28:17;27.10;;;18.40;;
61895;SDS011;47835;52.778;5.956;2024-03-22T10:30:43;27.63;;;19.77;;
61895;SDS011;47835;52.778;5.956;2024-03-22T10:33:12;31.17;;;19.52;;
61895;SDS011;47835;52.778;5.956;2024-03-22T10:35:39;23.50;;;17.50;;
61895;SDS011;47835;52.778;5.956;2024-03-22T10:38:06;25.10;;;18.17;;
61895;SDS011;47835;52.778;5.956;2024-03-22T10:40:32;28.02;;;18.65;;
61895;SDS011;47835;52.778;5.956;2024-03-22T10:43:00;23.73;;;17.00;;
61895;SDS011;47835;52.778;5.956;2024-03-22T10:45:27;31.00;;;20.67;;
61895;SDS011;47835;52.778;5.956;2024-03-22T10:47:55;29.00;;;18.20;;
61895;SDS011;47835;52.778;5.956;2024-03-22T10:50:21;31.17;;;16.83;;
61895;SDS011;47835;52.778;5.956;2024-03-22T10:52:50;24.38;;;17.27;;
61895;SDS011;47835;52.778;5.956;2024-03-22T10:57:49;20.05;;;16.52;;
61895;SDS011;47835;52.778;5.956;2024-03-22T11:00:15;21.10;;;15.02;;
61895;SDS011;47835;52.778;5.956;2024-03-22T11:02:53;20.15;;;16.35;;
61895;SDS011;47835;52.778;5.956;2024-03-22T11:05:18;20.77;;;15.95;;
61895;SDS011;47835;52.778;5.956;2024-03-22T11:07:44;23.95;;;15.75;;
61895;SDS011;47835;52.778;5.956;2024-03-22T11:10:13;20.77;;;15.40;;
61895;SDS011;47835;52.778;5.956;2024-03-22T11:12:42;23.38;;;16.85;;
61895;SDS011;47835;52.778;5.956;2024-03-22T11:15:11;22.65;;;16.35;;
61895;SDS011;47835;52.778;5.956;2024-03-22T11:17:37;19.45;;;15.20;;
61895;SDS011;47835;52.778;5.956;2024-03-22T11:20:03;18.48;;;14.55;;
61895;SDS011;47835;52.778;5.956;2024-03-22T11:22:31;19.00;;;12.90;;
61895;SDS011;47835;52.778;5.956;2024-03-22T11:24:56;15.43;;;13.82;;
61895;SDS011;47835;52.778;5.956;2024-03-22T11:27:22;14.40;;;12.40;;
61895;SDS011;47835;52.778;5.956;2024-03-22T11:29:47;15.65;;;13.43;;
61895;SDS011;47835;52.778;5.956;2024-03-22T11:32:16;14.77;;;13.15;;
61895;SDS011;47835;52.778;5.956;2024-03-22T11:34:42;16.27;;;13.48;;
61895;SDS011;47835;52.778;5.956;2024-03-22T11:37:09;14.02;;;11.90;;
61895;SDS011;47835;52.778;5.956;2024-03-22T11:39:38;14.10;;;12.00;;
61895;SDS011;47835;52.778;5.956;2024-03-22T11:42:04;13.15;;;11.75;;
61895;SDS011;47835;52.778;5.956;2024-03-22T11:44:32;12.45;;;11.15;;
61895;SDS011;47835;52.778;5.956;2024-03-22T11:46:59;13.38;;;11.32;;
61895;SDS011;47835;52.778;5.956;2024-03-22T11:49:25;12.30;;;11.10;;
61895;SDS011;47835;52.778;5.956;2024-03-22T11:51:51;12.95;;;11.30;;
61895;SDS011;47835;52.778;5.956;2024-03-22T11:54:20;14.30;;;12.82;;
61895;SDS011;47835;52.778;5.956;2024-03-22T11:56:46;13.50;;;12.10;;
61895;SDS011;47835;52.778;5.956;2024-03-22T11:59:12;16.52;;;13.95;;
61895;SDS011;47835;52.778;5.956;2024-03-22T12:01:37;12.02;;;10.68;;
61895;SDS011;47835;52.778;5.956;2024-03-22T12:04:04;10.18;;;8.95;;
61895;SDS011;47835;52.778;5.956;2024-03-22T12:06:29;9.95;;;8.95;;
61895;SDS011;47835;52.778;5.956;2024-03-22T12:08:55;10.38;;;9.25;;
61895;SDS011;47835;52.778;5.956;2024-03-22T12:11:21;9.40;;;8.60;;
61895;SDS011;47835;52.778;5.956;2024-03-22T12:13:46;9.35;;;8.55;;
61895;SDS011;47835;52.778;5.956;2024-03-22T12:16:12;11.52;;;9.85;;
61895;SDS011;47835;52.778;5.956;2024-03-22T12:18:37;10.18;;;9.18;;
61895;SDS011;47835;52.778;5.956;2024-03-22T12:21:03;9.95;;;8.90;;
61895;SDS011;47835;52.778;5.956;2024-03-22T12:23:29;10.85;;;9.55;;
61895;SDS011;47835;52.778;5.956;2024-03-22T12:25:54;10.50;;;9.52;;
61895;SDS011;47835;52.778;5.956;2024-03-22T12:28:21;10.82;;;9.65;;
61895;SDS011;47835;52.778;5.956;2024-03-22T12:30:46;12.63;;;10.02;;
61895;SDS011;47835;52.778;5.956;2024-03-22T12:33:13;13.88;;;12.18;;
61895;SDS011;47835;52.778;5.956;2024-03-22T12:35:42;20.00;;;12.80;;
61895;SDS011;47835;52.778;5.956;2024-03-22T12:38:08;21.38;;;14.40;;
61895;SDS011;47835;52.778;5.956;2024-03-22T12:40:38;20.23;;;13.27;;
61895;SDS011;47835;52.778;5.956;2024-03-22T12:43:04;19.55;;;12.50;;
61895;SDS011;47835;52.778;5.956;2024-03-22T12:45:30;41.83;;;25.00;;
61895;SDS011;47835;52.778;5.956;2024-03-22T12:47:57;46.15;;;27.38;;
61895;SDS011;47835;52.778;5.956;2024-03-22T12:50:23;50.50;;;28.42;;
61895;SDS011;47835;52.778;5.956;2024-03-22T12:52:49;53.30;;;32.90;;
61895;SDS011;47835;52.778;5.956;2024-03-22T12:55:15;60.20;;;33.53;;
61895;SDS011;47835;52.778;5.956;2024-03-22T12:57:41;61.80;;;30.67;;
61895;SDS011;47835;52.778;5.956;2024-03-22T13:00:08;38.72;;;24.10;;
61895;SDS011;47835;52.778;5.956;2024-03-22T13:02:41;28.17;;;17.38;;
61895;SDS011;47835;52.778;5.956;2024-03-22T13:05:07;51.75;;;27.65;;
61895;SDS011;47835;52.778;5.956;2024-03-22T13:07:33;57.20;;;31.55;;
61895;SDS011;47835;52.778;5.956;2024-03-22T13:09:59;32.63;;;16.60;;
61895;SDS011;47835;52.778;5.956;2024-03-22T13:12:28;20.95;;;14.35;;
61895;SDS011;47835;52.778;5.956;2024-03-22T13:14:56;38.63;;;19.98;;
61895;SDS011;47835;52.778;5.956;2024-03-22T13:17:22;53.47;;;30.88;;
61895;SDS011;47835;52.778;5.956;2024-03-22T13:19:48;46.17;;;25.98;;
61895;SDS011;47835;52.778;5.956;2024-03-22T13:22:14;45.92;;;27.00;;
61895;SDS011;47835;52.778;5.956;2024-03-22T13:24:43;35.72;;;22.40;;
61895;SDS011;47835;52.778;5.956;2024-03-22T13:27:13;28.70;;;19.60;;
61895;SDS011;47835;52.778;5.956;2024-03-22T13:29:39;40.47;;;23.15;;
61895;SDS011;47835;52.778;5.956;2024-03-22T13:32:05;44.47;;;25.92;;
61895;SDS011;47835;52.778;5.956;2024-03-22T13:34:33;46.75;;;26.90;;
61895;SDS011;47835;52.778;5.956;2024-03-22T13:37:02;50.00;;;27.17;;
61895;SDS011;47835;52.778;5.956;2024-03-22T13:39:29;33.33;;;22.35;;
61895;SDS011;47835;52.778;5.956;2024-03-22T13:41:55;35.50;;;22.25;;
61895;SDS011;47835;52.778;5.956;2024-03-22T13:44:21;42.67;;;24.30;;
61895;SDS011;47835;52.778;5.956;2024-03-22T13:46:49;40.25;;;20.98;;
61895;SDS011;47835;52.778;5.956;2024-03-22T13:49:18;28.58;;;15.00;;
61895;SDS011;47835;52.778;5.956;2024-03-22T13:51:46;19.40;;;13.57;;
61895;SDS011;47835;52.778;5.956;2024-03-22T13:54:12;36.97;;;21.55;;
61895;SDS011;47835;52.778;5.956;2024-03-22T13:56:38;26.98;;;15.63;;
61895;SDS011;47835;52.778;5.956;2024-03-22T13:59:04;29.13;;;15.95;;
61895;SDS011;47835;52.778;5.956;2024-03-22T14:01:31;22.38;;;11.40;;
61895;SDS011;47835;52.778;5.956;2024-03-22T14:03:57;18.17;;;9.95;;
61895;SDS011;47835;52.778;5.956;2024-03-22T14:06:23;14.80;;;8.82;;
61895;SDS011;47835;52.778;5.956;2024-03-22T14:08:48;15.38;;;9.15;;
61895;SDS011;47835;52.778;5.956;2024-03-22T14:11:14;18.27;;;9.73;;
61895;SDS011;47835;52.778;5.956;2024-03-22T14:13:39;18.27;;;9.55;;
61895;SDS011;47835;52.778;5.956;2024-03-22T14:16:05;17.45;;;9.00;;
61895;SDS011;47835;52.778;5.956;2024-03-22T14:18:33;16.92;;;10.07;;
61895;SDS011;47835;52.778;5.956;2024-03-22T14:21:00;19.75;;;9.50;;